createdAt,value
2023-02-11T00:00:21.035Z,6.30
2023-02-11T00:02:48.105Z,6.37
2023-02-11T00:05:14.949Z,6.36
2023-02-11T00:07:41.677Z,6.37
2023-02-11T00:10:09.202Z,6.34
2023-02-11T00:12:36.874Z,6.33
2023-02-11T00:15:04.604Z,6.35
2023-02-11T00:17:32.255Z,6.38
2023-02-11T00:19:58.830Z,6.35
2023-02-11T00:22:25.290Z,6.39
2023-02-11T00:24:51.692Z,6.43
2023-02-11T00:27:18.108Z,6.39
2023-02-11T00:29:44.501Z,6.39
2023-02-11T00:32:11.109Z,6.39
2023-02-11T00:34:38.113Z,6.44
2023-02-11T00:37:05.056Z,6.41
2023-02-11T00:39:31.447Z,6.46
2023-02-11T00:41:58.534Z,6.46
2023-02-11T00:44:25.313Z,6.41
2023-02-11T00:46:51.830Z,6.45
2023-02-11T00:49:18.654Z,6.47
2023-02-11T00:51:45.101Z,6.46
2023-02-11T00:54:11.587Z,6.48
2023-02-11T00:56:38.026Z,6.45
2023-02-11T00:59:04.560Z,6.43
2023-02-11T01:01:31.066Z,6.41
2023-02-11T01:03:57.555Z,6.44
2023-02-11T01:06:23.934Z,6.46
2023-02-11T01:08:50.574Z,6.47
2023-02-11T01:11:19.767Z,6.45
2023-02-11T01:13:46.959Z,6.43
2023-02-11T01:16:13.974Z,6.48
2023-02-11T01:18:41.287Z,6.49
2023-02-11T01:21:07.817Z,6.45
2023-02-11T01:23:34.277Z,6.51
2023-02-11T01:26:00.754Z,6.45
2023-02-11T01:28:29.032Z,6.44
2023-02-11T01:30:56.319Z,6.45
2023-02-11T01:33:23.933Z,6.43
2023-02-11T01:35:50.992Z,6.45
2023-02-11T01:38:23.312Z,6.48
2023-02-11T01:41:02.988Z,6.49
2023-02-11T01:43:33.419Z,6.51
2023-02-11T01:46:17.315Z,6.48
2023-02-11T01:48:47.480Z,6.47
2023-02-11T01:51:19.279Z,6.53
2023-02-11T01:53:47.577Z,6.49
2023-02-11T01:56:15.409Z,6.46
2023-02-11T01:58:45.171Z,6.48
2023-02-11T02:01:18.135Z,6.45
2023-02-11T02:03:48.676Z,6.51
2023-02-11T02:06:26.345Z,6.49
2023-02-11T02:09:00.873Z,6.47
2023-02-11T02:11:27.483Z,6.45
2023-02-11T02:13:53.977Z,6.43
2023-02-11T02:16:22.503Z,6.39
2023-02-11T02:19:26.852Z,6.41
2023-02-11T02:22:26.984Z,6.40
2023-02-11T02:25:19.067Z,6.37
2023-02-11T02:28:20.563Z,6.35
2023-02-11T02:31:07.988Z,6.34
2023-02-11T02:33:53.124Z,6.30
2023-02-11T02:36:37.959Z,6.26
2023-02-11T02:39:14.512Z,6.31
2023-02-11T02:41:42.151Z,6.25
2023-02-11T02:44:08.889Z,6.25
2023-02-11T02:46:36.398Z,6.19
2023-02-11T02:49:03.347Z,6.28
2023-02-11T02:51:47.653Z,6.30
2023-02-11T02:54:36.329Z,6.30
2023-02-11T02:57:14.744Z,6.29
2023-02-11T02:59:57.648Z,6.27
2023-02-11T03:02:33.426Z,6.26
2023-02-11T03:05:11.672Z,6.20
2023-02-11T03:07:45.045Z,6.22
2023-02-11T03:10:21.399Z,6.24
2023-02-11T03:12:48.625Z,6.29
2023-02-11T03:15:18.204Z,6.25
2023-02-11T03:17:47.560Z,6.32
2023-02-11T03:20:18.996Z,6.34
2023-02-11T03:22:57.869Z,6.27
2023-02-11T03:25:32.871Z,6.33
2023-02-11T03:28:14.531Z,6.35
2023-02-11T03:30:57.206Z,6.33
2023-02-11T03:33:33.179Z,6.32
2023-02-11T03:36:07.769Z,6.29
2023-02-11T03:38:38.038Z,6.29
2023-02-11T03:41:07.820Z,6.28
2023-02-11T03:43:41.879Z,6.31
2023-02-11T03:46:10.917Z,6.20
2023-02-11T03:48:42.016Z,6.33
2023-02-11T03:51:12.349Z,6.36
2023-02-11T03:53:42.231Z,6.39
2023-02-11T03:56:12.990Z,6.37
2023-02-11T03:58:39.387Z,6.41
2023-02-11T04:01:07.270Z,6.33
2023-02-11T04:03:33.655Z,6.41
2023-02-11T04:06:00.013Z,6.33
2023-02-11T04:08:26.348Z,6.28
2023-02-11T04:10:52.628Z,6.39
2023-02-11T04:13:18.974Z,6.27
2023-02-11T04:15:47.267Z,6.25
2023-02-11T04:18:15.084Z,6.32
2023-02-11T04:20:41.452Z,6.33
2023-02-11T04:23:07.934Z,6.29
2023-02-11T04:25:34.418Z,6.33
2023-02-11T04:28:00.892Z,6.27
2023-02-11T04:30:27.475Z,6.31
2023-02-11T04:32:54.103Z,6.23
2023-02-11T04:35:21.037Z,6.30
2023-02-11T04:37:47.455Z,6.24
2023-02-11T04:40:13.786Z,6.30
2023-02-11T04:42:40.655Z,6.24
2023-02-11T04:45:07.404Z,6.30
2023-02-11T04:47:34.391Z,6.29
2023-02-11T04:50:00.701Z,6.23
2023-02-11T04:52:27.166Z,6.19
2023-02-11T04:54:53.557Z,6.24
2023-02-11T04:57:19.925Z,6.22
2023-02-11T04:59:46.383Z,6.26
2023-02-11T05:02:12.823Z,6.27
2023-02-11T05:04:39.341Z,6.18
2023-02-11T05:07:05.825Z,6.27
2023-02-11T05:09:32.355Z,6.21
2023-02-11T05:11:58.756Z,6.24
2023-02-11T05:14:25.139Z,6.26
2023-02-11T05:16:51.571Z,6.25
2023-02-11T05:19:18.083Z,6.28
2023-02-11T05:22:00.299Z,6.27
2023-02-11T05:24:28.491Z,6.28
2023-02-11T05:26:54.891Z,6.27
2023-02-11T05:29:21.285Z,6.30
2023-02-11T05:31:47.831Z,6.26
2023-02-11T05:34:14.368Z,6.27
2023-02-11T05:36:41.014Z,6.29
2023-02-11T05:39:07.397Z,6.34
2023-02-11T05:41:33.782Z,6.29
2023-02-11T05:44:00.180Z,6.28
2023-02-11T05:46:26.873Z,6.27
2023-02-11T05:48:53.395Z,6.33
2023-02-11T05:51:19.800Z,6.35
2023-02-11T05:53:46.273Z,6.35
2023-02-11T05:56:12.752Z,6.37
2023-02-11T05:58:39.129Z,6.39
2023-02-11T06:01:05.598Z,6.38
2023-02-11T06:03:32.107Z,6.35
2023-02-11T06:05:58.660Z,6.42
2023-02-11T06:08:25.137Z,6.41
2023-02-11T06:10:51.553Z,6.42
2023-02-11T06:13:17.979Z,6.42
2023-02-11T06:15:44.429Z,6.37
2023-02-11T06:18:11.012Z,6.44
2023-02-11T06:20:38.489Z,6.44
2023-02-11T06:23:04.783Z,6.49
2023-02-11T06:25:31.076Z,6.49
2023-02-11T06:27:57.422Z,6.46
2023-02-11T06:30:23.835Z,6.45
2023-02-11T06:32:50.155Z,6.51
2023-02-11T06:35:16.678Z,6.46
2023-02-11T06:37:43.313Z,6.50
2023-02-11T06:40:11.303Z,6.47
2023-02-11T06:42:38.122Z,6.50
2023-02-11T06:45:04.922Z,6.56
2023-02-11T06:47:31.770Z,6.51
2023-02-11T06:49:58.084Z,6.56
2023-02-11T06:52:24.473Z,6.61
2023-02-11T06:54:50.811Z,6.62
2023-02-11T06:57:17.175Z,6.54
2023-02-11T06:59:43.539Z,6.55
2023-02-11T07:02:10.623Z,6.58
2023-02-11T07:04:37.081Z,6.61
2023-02-11T07:07:03.482Z,6.65
2023-02-11T07:09:29.883Z,6.62
2023-02-11T07:11:56.243Z,6.68
2023-02-11T07:14:22.648Z,6.63
2023-02-11T07:16:49.003Z,6.63
2023-02-11T07:19:15.344Z,6.61
2023-02-11T07:21:42.134Z,6.55
2023-02-11T07:24:11.229Z,6.67
2023-02-11T07:26:38.139Z,6.72
2023-02-11T07:29:04.878Z,6.74
2023-02-11T07:31:31.716Z,6.75
2023-02-11T07:34:00.859Z,6.73
2023-02-11T07:36:29.923Z,6.82
2023-02-11T07:38:56.530Z,6.84
2023-02-11T07:41:24.460Z,6.87
2023-02-11T07:43:51.585Z,6.85
2023-02-11T07:46:21.158Z,6.91
2023-02-11T07:48:47.774Z,6.86
2023-02-11T07:51:25.109Z,6.92
2023-02-11T07:53:52.047Z,6.97
2023-02-11T07:56:20.261Z,6.99
2023-02-11T07:58:46.667Z,7.06
2023-02-11T08:01:16.904Z,7.08
2023-02-11T08:03:43.499Z,7.07
2023-02-11T08:06:12.696Z,7.15
2023-02-11T08:08:39.701Z,7.12
2023-02-11T08:11:08.245Z,7.18
2023-02-11T08:13:34.885Z,7.21
2023-02-11T08:16:01.341Z,7.26
2023-02-11T08:18:27.883Z,7.30
2023-02-11T08:20:54.282Z,7.37
2023-02-11T08:23:20.655Z,7.37
2023-02-11T08:25:47.069Z,7.45
2023-02-11T08:28:13.588Z,7.47
2023-02-11T08:30:40.025Z,7.50
2023-02-11T08:33:06.413Z,7.45
2023-02-11T08:35:35.238Z,7.59
2023-02-11T08:38:01.643Z,7.55
2023-02-11T08:40:28.022Z,7.62
2023-02-11T08:42:54.367Z,7.68
2023-02-11T08:45:20.743Z,7.76
2023-02-11T08:47:47.109Z,7.70
2023-02-11T08:50:13.598Z,7.82
2023-02-11T08:52:39.941Z,7.87
2023-02-11T08:55:06.738Z,7.87
2023-02-11T08:57:33.107Z,7.96
2023-02-11T08:59:59.413Z,7.97
2023-02-11T09:02:25.899Z,8.00
2023-02-11T09:04:52.278Z,8.05
2023-02-11T09:07:18.653Z,8.00
2023-02-11T09:09:44.965Z,8.04
2023-02-11T09:12:11.307Z,8.14
2023-02-11T09:14:37.646Z,8.16
2023-02-11T09:17:04.102Z,8.15
2023-02-11T09:19:30.463Z,8.16
2023-02-11T09:21:57.066Z,8.30
2023-02-11T09:24:23.383Z,8.26
2023-02-11T09:26:49.751Z,8.37
2023-02-11T09:29:16.109Z,8.38
2023-02-11T09:31:42.559Z,8.38
2023-02-11T09:34:10.875Z,8.51
2023-02-11T09:36:39.472Z,8.63
2023-02-11T09:39:11.538Z,8.69
2023-02-11T09:41:56.407Z,8.82
2023-02-11T09:44:26.124Z,8.85
2023-02-11T09:46:59.662Z,8.90
2023-02-11T09:50:00.787Z,8.90
2023-02-11T09:52:37.268Z,8.84
2023-02-11T09:55:14.088Z,8.92
2023-02-11T09:57:40.611Z,8.92
2023-02-11T10:00:23.036Z,9.03
2023-02-11T10:03:00.798Z,9.06
2023-02-11T10:06:18.305Z,9.12
2023-02-11T10:09:31.022Z,9.23
2023-02-11T10:12:32.311Z,9.35
2023-02-11T10:15:21.517Z,9.46
2023-02-11T10:18:06.715Z,9.54
2023-02-11T10:20:38.552Z,9.66
2023-02-11T10:23:15.506Z,9.67
2023-02-11T10:25:48.863Z,9.74
2023-02-11T10:28:20.900Z,9.84
2023-02-11T10:31:04.905Z,9.87
2023-02-11T10:33:59.081Z,9.94
2023-02-11T10:36:30.934Z,9.95
2023-02-11T10:39:02.222Z,9.95
2023-02-11T10:41:36.659Z,9.98
2023-02-11T10:44:06.907Z,10.02
2023-02-11T10:46:37.318Z,10.12
2023-02-11T10:49:03.742Z,10.02
2023-02-11T10:51:32.625Z,10.03
2023-02-11T10:54:16.765Z,10.10
2023-02-11T10:56:45.863Z,10.12
2023-02-11T10:59:41.301Z,10.14
2023-02-11T11:02:23.860Z,10.16
2023-02-11T11:04:56.694Z,10.15
2023-02-11T11:07:27.389Z,10.17
2023-02-11T11:10:07.321Z,10.23
2023-02-11T11:12:45.904Z,10.30
2023-02-11T11:15:32.448Z,10.30
2023-02-11T11:18:24.597Z,10.30
2023-02-11T11:20:58.727Z,10.31
2023-02-11T11:23:26.039Z,10.28
2023-02-11T11:26:19.233Z,10.42
2023-02-11T11:29:21.497Z,10.49
2023-02-11T11:31:52.433Z,10.54
2023-02-11T11:34:31.920Z,10.62
2023-02-11T11:37:00.820Z,10.74
2023-02-11T11:39:32.848Z,10.78
2023-02-11T11:42:02.096Z,10.78
2023-02-11T11:45:01.414Z,10.92
2023-02-11T11:47:59.360Z,11.03
2023-02-11T11:50:39.829Z,11.12
2023-02-11T11:53:20.735Z,11.19
2023-02-11T11:55:59.593Z,11.31
2023-02-11T11:58:28.963Z,11.36
2023-02-11T12:01:33.007Z,11.52
2023-02-11T12:04:27.061Z,11.67
2023-02-11T12:07:10.563Z,11.80
2023-02-11T12:09:45.580Z,11.86
2023-02-11T12:12:34.665Z,11.89
2023-02-11T12:15:28.803Z,12.05
2023-02-11T12:18:06.148Z,12.10
2023-02-11T12:20:50.355Z,12.30
2023-02-11T12:23:34.640Z,12.40
2023-02-11T12:26:06.738Z,12.44
2023-02-11T12:29:13.891Z,12.51
2023-02-11T12:32:02.418Z,12.64
2023-02-11T12:34:40.089Z,12.62
2023-02-11T12:37:37.827Z,12.75
2023-02-11T12:40:10.032Z,12.87
2023-02-11T12:43:02.802Z,12.87
2023-02-11T12:45:41.058Z,12.94
2023-02-11T12:48:44.796Z,12.86
2023-02-11T12:51:39.390Z,12.69
2023-02-11T12:54:20.982Z,12.69
2023-02-11T12:56:56.778Z,12.59
2023-02-11T13:00:01.960Z,12.64
2023-02-11T13:02:40.763Z,12.57
2023-02-11T13:05:23.073Z,12.54
2023-02-11T13:07:51.764Z,12.50
2023-02-11T13:10:30.235Z,12.34
2023-02-11T13:12:59.003Z,12.27
2023-02-11T13:15:25.615Z,12.18
2023-02-11T13:18:11.096Z,11.92
2023-02-11T13:20:46.153Z,11.91
2023-02-11T13:23:31.730Z,11.88
2023-02-11T13:26:08.290Z,11.81
2023-02-11T13:29:15.609Z,11.89
2023-02-11T13:31:42.086Z,11.75
2023-02-11T13:34:27.149Z,11.81
2023-02-11T13:36:55.596Z,11.78
2023-02-11T13:39:22.564Z,11.73
2023-02-11T13:41:52.194Z,11.67
2023-02-11T13:44:23.496Z,11.67
2023-02-11T13:47:02.130Z,11.67
2023-02-11T13:49:34.212Z,11.63
2023-02-11T13:52:01.448Z,11.58
2023-02-11T13:54:38.947Z,11.52
2023-02-11T13:57:20.361Z,11.53
2023-02-11T13:59:51.951Z,11.50
2023-02-11T14:02:31.511Z,11.49
2023-02-11T14:05:04.097Z,11.60
2023-02-11T14:07:32.788Z,11.66
2023-02-11T14:09:59.132Z,11.71
2023-02-11T14:12:32.976Z,11.72
2023-02-11T14:15:18.114Z,11.73
2023-02-11T14:17:44.638Z,11.73
2023-02-11T14:20:36.707Z,11.64
2023-02-11T14:23:04.336Z,11.59
2023-02-11T14:25:31.067Z,11.62
2023-02-11T14:28:06.783Z,11.62
2023-02-11T14:30:50.253Z,11.61
2023-02-11T14:33:50.845Z,11.58
2023-02-11T14:36:52.384Z,11.45
2023-02-11T14:39:49.618Z,11.43
2023-02-11T14:42:22.749Z,11.42
2023-02-11T14:44:51.753Z,11.40
2023-02-11T14:47:40.886Z,11.43
2023-02-11T14:50:15.748Z,11.44
2023-02-11T14:52:44.140Z,11.44
2023-02-11T14:55:40.390Z,11.39
2023-02-11T14:58:21.689Z,11.32
2023-02-11T15:01:02.687Z,11.19
2023-02-11T15:03:35.860Z,11.07
2023-02-11T15:06:18.602Z,10.88
2023-02-11T15:08:51.163Z,10.89
2023-02-11T15:11:20.917Z,10.85
2023-02-11T15:13:49.071Z,10.87
2023-02-11T15:16:19.786Z,10.82
2023-02-11T15:19:07.103Z,10.77
2023-02-11T15:21:36.389Z,10.72
2023-02-11T15:24:06.464Z,10.75
2023-02-11T15:26:33.620Z,10.68
2023-02-11T15:29:00.279Z,10.59
2023-02-11T15:31:27.995Z,10.52
2023-02-11T15:33:54.643Z,10.57
2023-02-11T15:36:24.422Z,10.48
2023-02-11T15:39:16.262Z,10.53
2023-02-11T15:41:42.649Z,10.45
2023-02-11T15:44:30.425Z,10.35
2023-02-11T15:46:57.395Z,10.43
2023-02-11T15:49:24.829Z,10.26
2023-02-11T15:51:53.900Z,10.40
2023-02-11T15:54:29.079Z,10.42
2023-02-11T15:57:04.198Z,10.34
2023-02-11T15:59:37.372Z,10.36
2023-02-11T16:02:27.462Z,10.31
2023-02-11T16:04:56.276Z,10.21
2023-02-11T16:07:42.650Z,10.22
2023-02-11T16:10:43.267Z,10.16
2023-02-11T16:13:09.795Z,10.06
2023-02-11T16:15:46.750Z,10.07
2023-02-11T16:18:37.925Z,9.99
2023-02-11T16:21:07.555Z,9.95
2023-02-11T16:23:40.448Z,9.86
2023-02-11T16:26:28.679Z,9.79
2023-02-11T16:29:06.877Z,9.77
2023-02-11T16:31:34.335Z,9.74
2023-02-11T16:34:00.861Z,9.62
2023-02-11T16:36:27.346Z,9.59
2023-02-11T16:38:53.763Z,9.50
2023-02-11T16:41:20.186Z,9.45
2023-02-11T16:43:46.678Z,9.39
2023-02-11T16:46:16.418Z,9.34
2023-02-11T16:48:43.257Z,9.28
2023-02-11T16:51:11.974Z,9.21
2023-02-11T16:53:38.613Z,9.22
2023-02-11T16:56:06.299Z,9.21
2023-02-11T16:58:32.838Z,9.18
2023-02-11T17:00:59.507Z,9.21
2023-02-11T17:03:29.771Z,9.17
2023-02-11T17:05:56.326Z,9.16
2023-02-11T17:08:22.751Z,9.12
2023-02-11T17:10:52.604Z,9.09
2023-02-11T17:13:19.270Z,9.03
2023-02-11T17:15:45.797Z,8.96
2023-02-11T17:18:13.306Z,9.04
2023-02-11T17:20:40.367Z,9.07
2023-02-11T17:23:06.739Z,8.92
2023-02-11T17:25:33.067Z,8.96
2023-02-11T17:27:59.485Z,8.92
2023-02-11T17:30:25.861Z,8.93
2023-02-11T17:32:52.195Z,8.91
2023-02-11T17:35:18.585Z,8.91
2023-02-11T17:37:44.911Z,8.91
2023-02-11T17:40:12.221Z,8.90
2023-02-11T17:42:38.579Z,8.89
2023-02-11T17:45:05.321Z,8.84
2023-02-11T17:47:31.794Z,8.89
2023-02-11T17:49:58.207Z,8.91
2023-02-11T17:52:24.684Z,8.84
2023-02-11T17:54:51.003Z,8.84
2023-02-11T17:57:17.400Z,8.86
2023-02-11T17:59:43.999Z,8.87
2023-02-11T18:02:13.442Z,8.81
2023-02-11T18:04:39.827Z,8.79
2023-02-11T18:07:06.864Z,8.81
2023-02-11T18:09:40.527Z,8.85
2023-02-11T18:12:07.759Z,8.80
2023-02-11T18:14:34.268Z,8.83
2023-02-11T18:17:00.660Z,8.77
2023-02-11T18:19:27.100Z,8.76
2023-02-11T18:21:53.430Z,8.79
2023-02-11T18:24:19.740Z,8.76
2023-02-11T18:26:46.142Z,8.79
2023-02-11T18:29:12.504Z,8.72
2023-02-11T18:31:38.901Z,8.81
2023-02-11T18:34:06.747Z,8.74
2023-02-11T18:36:33.816Z,8.76
2023-02-11T18:39:00.133Z,8.72
2023-02-11T18:41:26.967Z,8.69
2023-02-11T18:43:53.420Z,8.71
2023-02-11T18:46:19.863Z,8.74
2023-02-11T18:48:46.233Z,8.74
2023-02-11T18:51:15.556Z,8.63
2023-02-11T18:53:42.747Z,8.67
2023-02-11T18:56:15.529Z,8.71
2023-02-11T18:58:41.948Z,8.68
2023-02-11T19:01:18.895Z,8.67
2023-02-11T19:03:45.523Z,8.62
2023-02-11T19:06:25.747Z,8.66
2023-02-11T19:08:53.272Z,8.49
2023-02-11T19:11:20.063Z,8.64
2023-02-11T19:13:46.837Z,8.57
2023-02-11T19:16:13.579Z,8.60
2023-02-11T19:18:40.001Z,8.56
2023-02-11T19:21:08.579Z,8.66
2023-02-11T19:23:36.720Z,8.58
2023-02-11T19:26:03.828Z,8.57
2023-02-11T19:28:31.669Z,8.56
2023-02-11T19:30:58.298Z,8.53
2023-02-11T19:33:24.662Z,8.57
2023-02-11T19:35:51.287Z,8.46
2023-02-11T19:38:17.752Z,8.54
2023-02-11T19:40:44.100Z,8.51
2023-02-11T19:43:10.435Z,8.47
2023-02-11T19:45:37.608Z,8.41
2023-02-11T19:48:04.157Z,8.48
2023-02-11T19:50:30.537Z,8.49
2023-02-11T19:52:56.863Z,8.47
2023-02-11T19:55:23.263Z,8.48
2023-02-11T19:57:49.601Z,8.44
2023-02-11T20:00:16.328Z,8.37
2023-02-11T20:02:42.748Z,8.37
2023-02-11T20:05:09.268Z,8.36
2023-02-11T20:07:35.662Z,8.38
2023-02-11T20:10:02.134Z,8.33
2023-02-11T20:12:28.594Z,8.38
2023-02-11T20:14:54.966Z,8.30
2023-02-11T20:17:21.293Z,8.30
2023-02-11T20:19:47.641Z,8.23
2023-02-11T20:22:14.001Z,8.31
2023-02-11T20:24:40.337Z,8.26
2023-02-11T20:27:06.705Z,8.26
2023-02-11T20:29:33.044Z,8.25
2023-02-11T20:31:59.511Z,8.25
2023-02-11T20:34:25.923Z,8.24
2023-02-11T20:36:52.480Z,8.20
2023-02-11T20:39:20.267Z,8.14
2023-02-11T20:41:46.620Z,8.16
2023-02-11T20:44:13.709Z,8.19
2023-02-11T20:46:43.110Z,8.23
2023-02-11T20:49:11.839Z,8.18
2023-02-11T20:51:38.374Z,8.13
2023-02-11T20:54:05.412Z,8.08
2023-02-11T20:56:35.368Z,8.11
2023-02-11T20:59:02.917Z,8.13
2023-02-11T21:01:32.359Z,8.07
2023-02-11T21:04:13.904Z,8.06
2023-02-11T21:06:43.339Z,8.02
2023-02-11T21:09:13.186Z,8.07
2023-02-11T21:11:40.167Z,8.02
2023-02-11T21:14:06.937Z,7.97
2023-02-11T21:16:33.729Z,8.01
2023-02-11T21:19:00.101Z,7.88
2023-02-11T21:21:26.568Z,7.96
2023-02-11T21:23:53.152Z,7.92
2023-02-11T21:26:19.595Z,7.95
2023-02-11T21:28:46.063Z,7.91
2023-02-11T21:31:28.291Z,7.83
2023-02-11T21:33:55.643Z,7.82
2023-02-11T21:36:23.396Z,7.82
2023-02-11T21:38:49.778Z,7.84
2023-02-11T21:41:16.992Z,7.83
2023-02-11T21:43:43.492Z,7.83
2023-02-11T21:46:12.688Z,7.83
2023-02-11T21:48:39.270Z,7.70
2023-02-11T21:51:07.838Z,7.83
2023-02-11T21:53:34.985Z,7.80
2023-02-11T21:56:03.669Z,7.82
2023-02-11T21:58:30.140Z,7.79
2023-02-11T22:00:56.605Z,7.77
2023-02-11T22:03:23.154Z,7.74
2023-02-11T22:05:49.587Z,7.73
2023-02-11T22:08:18.002Z,7.70
2023-02-11T22:10:45.625Z,7.75
2023-02-11T22:13:12.088Z,7.70
2023-02-11T22:15:39.167Z,7.68
2023-02-11T22:18:05.611Z,7.75
2023-02-11T22:20:32.024Z,7.70
2023-02-11T22:22:58.579Z,7.73
2023-02-11T22:25:25.152Z,7.74
2023-02-11T22:27:52.070Z,7.67
2023-02-11T22:30:18.588Z,7.66
2023-02-11T22:32:45.130Z,7.70
2023-02-11T22:35:11.550Z,7.70
2023-02-11T22:37:37.983Z,7.67
2023-02-11T22:40:04.740Z,7.66
2023-02-11T22:42:31.246Z,7.63
2023-02-11T22:44:57.654Z,7.62
2023-02-11T22:47:24.129Z,7.56
2023-02-11T22:49:50.575Z,7.49
2023-02-11T22:52:16.965Z,7.52
2023-02-11T22:54:43.402Z,7.50
2023-02-11T22:57:09.836Z,7.42
2023-02-11T22:59:36.282Z,7.44
2023-02-11T23:02:02.868Z,7.42
2023-02-11T23:04:29.321Z,7.34
2023-02-11T23:06:55.661Z,7.37
2023-02-11T23:09:22.141Z,7.28
2023-02-11T23:11:48.617Z,7.31
2023-02-11T23:14:15.040Z,7.24
2023-02-11T23:16:41.501Z,7.28
2023-02-11T23:19:10.179Z,7.26
2023-02-11T23:21:38.463Z,7.22
2023-02-11T23:24:08.548Z,7.14
2023-02-11T23:26:37.092Z,7.13
2023-02-11T23:29:03.730Z,7.07
2023-02-11T23:31:33.603Z,7.10
2023-02-11T23:34:01.161Z,7.06
2023-02-11T23:36:27.675Z,6.94
2023-02-11T23:38:54.109Z,6.93
2023-02-11T23:41:21.705Z,6.88
2023-02-11T23:43:54.762Z,6.82
2023-02-11T23:46:22.305Z,6.70
2023-02-11T23:48:49.864Z,6.64
2023-02-11T23:51:16.551Z,6.52
2023-02-11T23:53:43.336Z,6.43
2023-02-11T23:56:13.416Z,6.39
2023-02-11T23:58:39.793Z,6.33
